createdAt,value
2019-03-27T00:00:45.982Z,12.53
2019-03-27T00:03:17.220Z,10.80
2019-03-27T00:05:48.303Z,13.50
2019-03-27T00:08:19.404Z,14.60
2019-03-27T00:10:50.457Z,10.50
2019-03-27T00:13:21.611Z,13.93
2019-03-27T00:15:52.720Z,8.93
2019-03-27T00:18:23.854Z,10.83
2019-03-27T00:20:54.975Z,8.50
2019-03-27T00:23:26.222Z,14.53
2019-03-27T00:25:57.288Z,13.87
2019-03-27T00:28:29.484Z,13.97
2019-03-27T00:31:00.679Z,10.77
2019-03-27T00:33:31.745Z,12.50
2019-03-27T00:36:02.857Z,14.87
2019-03-27T00:38:34.073Z,15.97
2019-03-27T00:41:05.299Z,11.67
2019-03-27T00:43:36.458Z,10.50
2019-03-27T00:46:07.647Z,10.37
2019-03-27T00:48:38.752Z,15.27
2019-03-27T00:51:09.888Z,15.10
2019-03-27T00:53:40.949Z,10.37
2019-03-27T00:56:11.964Z,8.70
2019-03-27T00:58:43.093Z,14.07
2019-03-27T01:01:15.054Z,10.43
2019-03-27T01:03:46.095Z,8.23
2019-03-27T01:06:17.260Z,14.20
2019-03-27T01:08:48.399Z,6.23
2019-03-27T01:11:19.604Z,9.17
2019-03-27T01:13:50.756Z,11.17
2019-03-27T01:16:21.863Z,10.83
2019-03-27T01:18:53.065Z,6.67
2019-03-27T01:21:24.151Z,8.93
2019-03-27T01:23:55.357Z,10.27
2019-03-27T01:26:26.439Z,10.13
2019-03-27T01:28:57.540Z,8.30
2019-03-27T01:31:28.621Z,12.77
2019-03-27T01:33:59.789Z,11.90
2019-03-27T01:36:30.907Z,10.10
2019-03-27T01:39:02.012Z,10.03
2019-03-27T01:41:34.145Z,9.23
2019-03-27T01:44:05.306Z,11.63
2019-03-27T01:46:36.733Z,11.90
2019-03-27T01:49:09.393Z,11.97
2019-03-27T01:51:40.483Z,12.63
2019-03-27T01:54:11.558Z,9.03
2019-03-27T01:56:42.597Z,10.37
2019-03-27T01:59:13.645Z,11.70
2019-03-27T02:01:44.822Z,12.73
2019-03-27T02:04:15.909Z,12.07
2019-03-27T02:06:46.962Z,8.43
2019-03-27T02:09:18.099Z,9.37
2019-03-27T02:11:49.216Z,11.90
2019-03-27T02:14:20.290Z,12.03
2019-03-27T02:16:51.382Z,12.70
2019-03-27T02:19:22.436Z,13.97
2019-03-27T02:21:53.513Z,13.50
2019-03-27T02:24:24.674Z,13.17
2019-03-27T02:26:55.778Z,11.53
2019-03-27T02:29:26.965Z,12.13
2019-03-27T02:31:58.053Z,10.07
2019-03-27T02:34:29.265Z,8.23
2019-03-27T02:37:00.433Z,11.20
2019-03-27T02:39:31.545Z,12.30
2019-03-27T02:42:02.666Z,6.40
2019-03-27T02:44:33.845Z,12.03
2019-03-27T02:47:04.959Z,12.30
2019-03-27T02:49:36.073Z,17.33
2019-03-27T02:52:07.197Z,8.80
2019-03-27T02:54:38.234Z,17.33
2019-03-27T02:57:09.324Z,14.53
2019-03-27T02:59:41.460Z,10.50
2019-03-27T03:02:12.590Z,12.47
2019-03-27T03:04:43.629Z,13.43
2019-03-27T03:07:14.696Z,11.80
2019-03-27T03:09:45.773Z,8.23
2019-03-27T03:12:16.896Z,8.17
2019-03-27T03:14:48.014Z,9.73
2019-03-27T03:17:19.129Z,13.20
2019-03-27T03:19:50.272Z,13.37
2019-03-27T03:22:21.371Z,10.90
2019-03-27T03:24:52.471Z,11.80
2019-03-27T03:27:23.520Z,11.27
2019-03-27T03:29:54.604Z,12.90
2019-03-27T03:32:25.657Z,14.57
2019-03-27T03:34:56.826Z,10.20
2019-03-27T03:37:27.925Z,12.60
2019-03-27T03:39:59.002Z,14.10
2019-03-27T03:42:30.058Z,11.13
2019-03-27T03:45:01.189Z,13.20
2019-03-27T03:47:32.321Z,11.40
2019-03-27T03:50:03.476Z,11.67
2019-03-27T03:52:34.714Z,13.40
2019-03-27T03:55:06.087Z,12.00
2019-03-27T03:57:38.783Z,17.10
2019-03-27T04:00:10.108Z,16.23
2019-03-27T04:02:41.759Z,13.40
2019-03-27T04:05:15.673Z,14.27
2019-03-27T04:07:46.839Z,12.43
2019-03-27T04:10:17.938Z,14.97
2019-03-27T04:12:49.047Z,13.63
2019-03-27T04:15:20.252Z,16.63
2019-03-27T04:17:51.327Z,15.30
2019-03-27T04:20:22.401Z,13.63
2019-03-27T04:22:53.678Z,14.43
2019-03-27T04:25:24.813Z,14.27
2019-03-27T04:27:55.834Z,16.70
2019-03-27T04:30:26.939Z,13.87
2019-03-27T04:32:57.959Z,18.17
2019-03-27T04:35:29.127Z,18.90
2019-03-27T04:38:00.161Z,11.27
2019-03-27T04:40:31.224Z,15.03
2019-03-27T04:43:02.396Z,14.47
2019-03-27T04:45:33.385Z,13.83
2019-03-27T04:48:04.481Z,14.87
2019-03-27T04:50:36.590Z,15.10
2019-03-27T04:55:56.724Z,17.00
2019-03-27T04:58:27.867Z,21.07
2019-03-27T05:00:58.896Z,17.20
2019-03-27T05:03:31.003Z,16.73
2019-03-27T05:06:02.119Z,15.60
2019-03-27T05:08:33.104Z,10.33
2019-03-27T05:11:04.199Z,11.77
2019-03-27T05:13:37.851Z,21.97
2019-03-27T05:16:08.903Z,16.40
2019-03-27T05:18:39.971Z,18.50
2019-03-27T05:21:10.997Z,14.73
2019-03-27T05:23:42.004Z,14.07
2019-03-27T05:26:13.146Z,14.00
2019-03-27T05:28:44.157Z,18.20
2019-03-27T05:31:15.186Z,19.30
2019-03-27T05:33:46.279Z,17.30
2019-03-27T05:36:17.280Z,16.80
2019-03-27T05:38:48.308Z,17.27
2019-03-27T05:41:19.458Z,17.03
2019-03-27T05:43:50.465Z,14.37
2019-03-27T05:46:21.563Z,16.57
2019-03-27T05:48:52.616Z,16.87
2019-03-27T05:51:23.669Z,14.20
2019-03-27T05:53:54.747Z,17.60
2019-03-27T05:56:25.783Z,13.87
2019-03-27T05:58:56.817Z,15.93
2019-03-27T06:01:27.883Z,13.00
2019-03-27T06:03:58.917Z,19.07
2019-03-27T06:06:29.959Z,15.90
2019-03-27T06:09:01.023Z,19.47
2019-03-27T06:11:32.260Z,15.30
2019-03-27T06:14:03.399Z,12.27
2019-03-27T06:16:34.451Z,17.33
2019-03-27T06:19:05.572Z,13.80
2019-03-27T06:21:36.578Z,22.83
2019-03-27T06:24:08.600Z,14.47
2019-03-27T06:26:39.633Z,19.03
2019-03-27T06:29:10.687Z,14.67
2019-03-27T06:31:41.772Z,19.10
2019-03-27T06:34:12.820Z,18.60
2019-03-27T06:36:44.000Z,15.53
2019-03-27T06:39:15.079Z,15.00
2019-03-27T06:41:46.128Z,17.60
2019-03-27T06:44:17.220Z,18.07
2019-03-27T06:46:49.311Z,17.53
2019-03-27T06:49:20.339Z,19.83
2019-03-27T06:51:51.370Z,18.87
2019-03-27T06:54:22.393Z,19.37
2019-03-27T06:56:53.524Z,15.57
2019-03-27T06:59:24.729Z,15.70
2019-03-27T07:01:55.771Z,14.93
2019-03-27T07:04:26.911Z,17.20
2019-03-27T07:06:57.924Z,21.00
2019-03-27T07:09:28.991Z,21.63
2019-03-27T07:12:00.105Z,24.97
2019-03-27T07:14:31.256Z,20.63
2019-03-27T07:17:02.321Z,17.87
2019-03-27T07:19:33.436Z,23.47
2019-03-27T07:22:04.472Z,17.83
2019-03-27T07:24:35.591Z,18.97
2019-03-27T07:27:06.705Z,18.30
2019-03-27T07:32:19.529Z,19.17
2019-03-27T07:34:50.686Z,20.57
2019-03-27T07:37:21.784Z,18.77
2019-03-27T07:39:52.864Z,22.20
2019-03-27T07:42:23.967Z,20.57
2019-03-27T07:44:55.004Z,23.40
2019-03-27T07:47:26.124Z,22.20
2019-03-27T07:49:57.324Z,16.47
2019-03-27T07:52:28.385Z,17.30
2019-03-27T07:57:41.987Z,19.53
2019-03-27T08:00:15.431Z,21.87
2019-03-27T08:02:46.515Z,20.17
2019-03-27T08:05:17.650Z,20.50
2019-03-27T08:07:48.840Z,14.13
2019-03-27T08:10:19.872Z,14.20
2019-03-27T08:12:50.986Z,23.13
2019-03-27T08:15:22.078Z,21.63
2019-03-27T08:17:53.187Z,22.27
2019-03-27T08:20:24.275Z,17.60
2019-03-27T08:22:55.417Z,17.93
2019-03-27T08:28:09.332Z,14.37
2019-03-27T08:30:40.532Z,14.07
2019-03-27T08:33:11.603Z,23.87
2019-03-27T08:35:42.702Z,14.40
2019-03-27T08:38:15.110Z,11.50
2019-03-27T08:40:46.224Z,10.80
2019-03-27T08:43:21.466Z,15.00
2019-03-27T08:45:50.004Z,9.83
2019-03-27T08:48:21.135Z,10.60
2019-03-27T08:50:52.176Z,12.50
2019-03-27T08:53:23.288Z,10.23
2019-03-27T08:55:54.425Z,15.17
2019-03-27T08:58:25.520Z,10.43
2019-03-27T09:00:56.734Z,13.03
2019-03-27T09:03:27.807Z,15.03
2019-03-27T09:05:58.855Z,14.80
2019-03-27T09:08:29.900Z,11.63
2019-03-27T09:11:04.370Z,11.80
2019-03-27T09:13:33.641Z,9.17
2019-03-27T09:16:04.787Z,11.63
2019-03-27T09:18:35.856Z,13.17
2019-03-27T09:21:06.929Z,10.80
2019-03-27T09:23:38.068Z,14.87
2019-03-27T09:26:09.112Z,11.20
2019-03-27T09:28:40.205Z,11.80
2019-03-27T09:31:11.621Z,12.60
2019-03-27T09:33:42.852Z,11.27
2019-03-27T09:36:13.892Z,15.53
2019-03-27T09:38:45.040Z,10.90
2019-03-27T09:41:16.059Z,12.63
2019-03-27T09:43:47.177Z,9.80
2019-03-27T09:46:18.289Z,7.93
2019-03-27T09:48:50.376Z,6.47
2019-03-27T09:51:21.420Z,9.30
2019-03-27T09:53:53.286Z,7.43
2019-03-27T09:56:24.460Z,4.57
2019-03-27T09:58:55.567Z,7.80
2019-03-27T10:01:26.587Z,7.43
2019-03-27T10:03:57.668Z,7.30
2019-03-27T10:06:28.727Z,9.60
2019-03-27T10:08:59.838Z,8.17
2019-03-27T10:11:30.936Z,5.23
2019-03-27T10:14:01.962Z,5.97
2019-03-27T10:16:32.967Z,5.03
2019-03-27T10:19:04.053Z,3.47
2019-03-27T10:21:35.179Z,2.67
2019-03-27T10:24:06.298Z,3.07
2019-03-27T10:26:37.368Z,4.73
2019-03-27T10:29:08.512Z,5.57
2019-03-27T10:31:39.625Z,2.70
2019-03-27T10:34:10.720Z,6.97
2019-03-27T10:36:41.806Z,3.80
2019-03-27T10:39:12.924Z,6.20
2019-03-27T10:44:33.212Z,8.60
2019-03-27T10:47:04.220Z,5.23
2019-03-27T10:49:35.316Z,6.47
2019-03-27T10:52:06.435Z,5.30
2019-03-27T10:54:37.485Z,5.93
2019-03-27T10:57:08.555Z,6.97
2019-03-27T10:59:39.659Z,9.17
2019-03-27T11:02:10.836Z,5.60
2019-03-27T11:04:41.929Z,9.30
2019-03-27T11:07:12.961Z,6.53
2019-03-27T11:09:44.054Z,6.67
2019-03-27T11:12:15.113Z,11.70
2019-03-27T11:14:46.215Z,9.17
2019-03-27T11:17:17.329Z,8.03
2019-03-27T11:19:48.363Z,31.53
2019-03-27T11:22:19.468Z,6.90
2019-03-27T11:24:50.518Z,6.17
2019-03-27T11:27:21.540Z,9.37
2019-03-27T11:29:52.633Z,4.70
2019-03-27T11:32:23.760Z,7.30
2019-03-27T11:34:54.879Z,10.57
2019-03-27T11:37:25.974Z,19.57
2019-03-27T11:42:39.084Z,13.77
2019-03-27T11:45:10.428Z,2.57
2019-03-27T11:47:41.496Z,3.97
2019-03-27T11:50:12.847Z,3.97
2019-03-27T11:52:43.874Z,5.17
2019-03-27T11:55:15.031Z,4.57
2019-03-27T11:57:46.128Z,7.43
2019-03-27T12:00:17.284Z,5.23
2019-03-27T12:02:48.373Z,6.67
2019-03-27T12:05:19.461Z,6.17
2019-03-27T12:07:50.554Z,7.10
2019-03-27T12:10:21.654Z,6.73
2019-03-27T12:12:52.727Z,4.33
2019-03-27T12:15:42.357Z,7.80
2019-03-27T12:18:15.415Z,6.03
2019-03-27T12:20:58.097Z,5.40
2019-03-27T12:23:19.248Z,9.17
2019-03-27T12:25:50.421Z,6.20
2019-03-27T12:28:22.573Z,6.53
2019-03-27T12:30:53.604Z,6.73
2019-03-27T12:33:24.640Z,3.77
2019-03-27T12:35:55.796Z,7.20
2019-03-27T12:38:26.883Z,8.70
2019-03-27T12:40:58.216Z,6.83
2019-03-27T12:43:30.266Z,5.17
2019-03-27T12:46:01.375Z,8.53
2019-03-27T12:48:32.753Z,6.73
2019-03-27T12:51:12.662Z,7.20
2019-03-27T12:53:36.719Z,21.63
2019-03-27T12:56:07.853Z,7.40
2019-03-27T12:58:38.976Z,7.80
2019-03-27T13:01:10.093Z,4.93
2019-03-27T13:03:44.227Z,10.67
2019-03-27T13:06:13.979Z,5.83
2019-03-27T13:08:45.152Z,6.63
2019-03-27T13:11:16.207Z,9.83
2019-03-27T13:13:47.394Z,6.63
2019-03-27T13:16:18.787Z,7.53
2019-03-27T13:18:49.969Z,31.57
2019-03-27T13:21:26.540Z,7.47
2019-03-27T13:23:53.828Z,13.30
2019-03-27T13:26:24.895Z,4.83
2019-03-27T13:28:56.170Z,11.33
2019-03-27T13:31:27.324Z,5.13
2019-03-27T13:33:58.459Z,6.93
2019-03-27T13:36:29.664Z,5.43
2019-03-27T13:39:00.848Z,7.03
2019-03-27T13:41:33.597Z,7.70
2019-03-27T13:44:04.783Z,6.97
2019-03-27T13:46:35.908Z,4.87
2019-03-27T13:51:42.623Z,7.17
2019-03-27T13:54:13.751Z,4.00
2019-03-27T13:56:44.967Z,7.67
2019-03-27T13:59:16.097Z,6.73
2019-03-27T14:01:47.320Z,6.47
2019-03-27T14:04:18.432Z,8.00
2019-03-27T14:06:49.534Z,7.00
2019-03-27T14:09:20.620Z,7.33
2019-03-27T14:11:51.740Z,8.13
2019-03-27T14:17:18.789Z,8.07
2019-03-27T14:19:49.913Z,8.70
2019-03-27T14:22:20.980Z,7.80
2019-03-27T14:24:52.051Z,5.60
2019-03-27T14:27:23.127Z,10.83
2019-03-27T14:29:54.239Z,6.67
2019-03-27T14:32:25.397Z,9.17
2019-03-27T14:34:56.471Z,7.73
2019-03-27T14:37:27.626Z,9.53
2019-03-27T14:39:58.664Z,8.87
2019-03-27T14:42:29.729Z,12.60
2019-03-27T14:45:00.845Z,10.20
2019-03-27T14:47:31.955Z,10.60
2019-03-27T14:50:03.076Z,11.20
2019-03-27T14:52:34.198Z,8.73
2019-03-27T14:55:05.887Z,7.60
2019-03-27T14:57:37.101Z,10.00
2019-03-27T15:00:09.356Z,11.90
2019-03-27T15:02:40.649Z,11.97
2019-03-27T15:05:12.089Z,9.50
2019-03-27T15:07:43.231Z,11.23
2019-03-27T15:10:14.664Z,9.63
2019-03-27T15:12:45.763Z,9.93
2019-03-27T15:15:17.213Z,16.43
2019-03-27T15:17:48.318Z,9.13
2019-03-27T15:20:19.396Z,8.73
2019-03-27T15:22:50.548Z,8.13
2019-03-27T15:25:21.701Z,11.17
2019-03-27T15:27:52.832Z,9.87
2019-03-27T15:30:24.066Z,13.00
2019-03-27T15:32:55.194Z,10.03
2019-03-27T15:35:26.339Z,10.33
2019-03-27T15:37:57.453Z,11.27
2019-03-27T15:40:44.538Z,12.60
2019-03-27T15:45:59.603Z,13.30
2019-03-27T15:48:30.754Z,13.17
2019-03-27T15:51:01.869Z,10.37
2019-03-27T15:53:32.932Z,12.13
2019-03-27T15:56:04.039Z,13.83
2019-03-27T15:58:35.200Z,11.13
2019-03-27T16:01:08.141Z,12.37
2019-03-27T16:03:39.288Z,11.17
2019-03-27T16:06:10.409Z,14.23
2019-03-27T16:08:41.589Z,17.13
2019-03-27T16:11:12.673Z,15.57
2019-03-27T16:13:43.760Z,14.30
2019-03-27T16:16:14.896Z,12.73
2019-03-27T16:18:46.008Z,13.57
2019-03-27T16:21:17.211Z,11.50
2019-03-27T16:23:48.291Z,10.10
2019-03-27T16:26:19.424Z,13.20
2019-03-27T16:28:50.556Z,18.87
2019-03-27T16:31:21.694Z,13.33
2019-03-27T16:33:52.812Z,12.33
2019-03-27T16:36:23.924Z,15.50
2019-03-27T16:38:55.156Z,16.63
2019-03-27T16:41:26.341Z,11.03
2019-03-27T16:43:58.485Z,13.17
2019-03-27T16:46:29.603Z,12.00
2019-03-27T16:49:00.777Z,13.87
2019-03-27T16:51:32.794Z,12.40
2019-03-27T16:54:03.918Z,29.77
2019-03-27T16:56:35.100Z,31.27
2019-03-27T16:59:06.133Z,39.73
2019-03-27T17:01:37.232Z,17.50
2019-03-27T17:04:08.278Z,16.07
2019-03-27T17:06:39.393Z,44.97
2019-03-27T17:09:10.783Z,19.10
2019-03-27T17:11:41.944Z,14.57
2019-03-27T17:14:13.037Z,22.00
2019-03-27T17:16:45.070Z,17.63
2019-03-27T17:19:16.178Z,13.23
2019-03-27T17:21:47.341Z,17.53
2019-03-27T17:24:18.380Z,17.37
2019-03-27T17:26:49.482Z,12.80
2019-03-27T17:29:20.549Z,11.53
2019-03-27T17:31:51.695Z,17.83
2019-03-27T17:34:22.715Z,14.17
2019-03-27T17:36:54.155Z,17.03
2019-03-27T17:39:25.296Z,17.87
2019-03-27T17:41:56.541Z,13.53
2019-03-27T17:44:27.612Z,15.63
2019-03-27T17:46:58.720Z,15.70
2019-03-27T17:49:29.934Z,13.30
2019-03-27T17:52:01.071Z,15.00
2019-03-27T17:54:32.221Z,15.03
2019-03-27T17:57:03.342Z,13.40
2019-03-27T17:59:34.503Z,16.13
2019-03-27T18:02:06.889Z,14.13
2019-03-27T18:04:38.004Z,20.47
2019-03-27T18:07:09.018Z,14.30
2019-03-27T18:09:40.164Z,20.97
2019-03-27T18:12:11.211Z,20.13
2019-03-27T18:14:42.272Z,13.87
2019-03-27T18:17:13.384Z,16.83
2019-03-27T18:19:44.558Z,14.33
2019-03-27T18:22:15.625Z,18.80
2019-03-27T18:24:46.744Z,16.00
2019-03-27T18:27:17.841Z,16.63
2019-03-27T18:29:48.943Z,14.30
2019-03-27T18:32:20.000Z,18.97
2019-03-27T18:34:51.137Z,18.10
2019-03-27T18:37:22.235Z,17.80
2019-03-27T18:39:53.410Z,15.83
2019-03-27T18:42:24.677Z,13.93
2019-03-27T18:44:55.785Z,15.30
2019-03-27T18:47:26.905Z,13.00
2019-03-27T18:49:58.088Z,16.60
2019-03-27T18:52:29.224Z,15.87
2019-03-27T18:55:00.376Z,10.93
2019-03-27T18:57:31.504Z,20.73
2019-03-27T19:00:02.642Z,15.87
2019-03-27T19:02:33.816Z,12.27
2019-03-27T19:05:05.185Z,17.70
2019-03-27T19:07:36.452Z,15.17
2019-03-27T19:10:08.259Z,16.37
2019-03-27T19:12:39.402Z,15.23
2019-03-27T19:15:11.110Z,17.37
2019-03-27T19:17:42.308Z,20.03
2019-03-27T19:20:13.666Z,17.43
2019-03-27T19:22:44.776Z,16.47
2019-03-27T19:25:15.938Z,18.53
2019-03-27T19:27:48.065Z,19.83
2019-03-27T19:30:19.220Z,12.87
2019-03-27T19:32:50.403Z,14.50
2019-03-27T19:35:21.504Z,15.23
2019-03-27T19:37:52.692Z,17.70
2019-03-27T19:40:23.781Z,13.03
2019-03-27T19:42:54.961Z,10.90
2019-03-27T19:48:15.036Z,14.50
2019-03-27T19:50:46.197Z,18.40
2019-03-27T19:53:17.291Z,15.80
2019-03-27T19:55:48.463Z,12.20
2019-03-27T19:58:19.650Z,14.20
2019-03-27T20:00:50.679Z,15.77
2019-03-27T20:03:21.868Z,13.87
2019-03-27T20:05:53.033Z,17.13
2019-03-27T20:08:24.264Z,19.47
2019-03-27T20:10:55.414Z,13.40
2019-03-27T20:13:26.511Z,15.13
2019-03-27T20:15:57.634Z,19.87
2019-03-27T20:18:28.767Z,18.00
2019-03-27T20:20:59.887Z,14.07
2019-03-27T20:23:31.134Z,18.83
2019-03-27T20:26:02.280Z,22.53
2019-03-27T20:28:33.428Z,17.20
2019-03-27T20:31:04.559Z,20.90
2019-03-27T20:33:38.080Z,16.60
2019-03-27T20:36:08.434Z,22.27
2019-03-27T20:38:39.533Z,16.80
2019-03-27T20:41:10.746Z,20.17
2019-03-27T20:43:41.850Z,17.47
2019-03-27T20:46:24.483Z,22.23
2019-03-27T20:48:45.749Z,21.97
2019-03-27T20:51:17.019Z,20.87
2019-03-27T20:53:48.105Z,15.70
2019-03-27T20:56:19.243Z,23.13
2019-03-27T20:58:50.472Z,23.87
2019-03-27T21:01:21.640Z,20.73
2019-03-27T21:03:52.821Z,21.23
2019-03-27T21:06:24.004Z,23.73
2019-03-27T21:08:55.151Z,27.43
2019-03-27T21:11:26.247Z,28.00
2019-03-27T21:13:57.373Z,23.10
2019-03-27T21:16:28.560Z,26.67
2019-03-27T21:18:59.641Z,25.23
2019-03-27T21:21:30.771Z,30.90
2019-03-27T21:24:01.905Z,20.67
2019-03-27T21:26:33.029Z,24.47
2019-03-27T21:29:04.099Z,25.97
2019-03-27T21:31:35.290Z,26.83
2019-03-27T21:36:56.775Z,28.17
2019-03-27T21:39:27.923Z,25.80
2019-03-27T21:41:59.051Z,25.70
2019-03-27T21:44:30.178Z,25.27
2019-03-27T21:47:01.446Z,23.10
2019-03-27T21:49:32.594Z,23.87
2019-03-27T21:52:03.743Z,24.93
2019-03-27T21:54:35.899Z,28.53
2019-03-27T21:57:06.994Z,22.67
2019-03-27T21:59:38.140Z,23.83
2019-03-27T22:02:09.644Z,28.80
2019-03-27T22:04:40.719Z,22.87
2019-03-27T22:07:11.904Z,28.53
2019-03-27T22:09:43.033Z,25.40
2019-03-27T22:12:15.743Z,20.50
2019-03-27T22:14:46.841Z,23.73
2019-03-27T22:17:18.087Z,21.27
2019-03-27T22:19:49.195Z,20.47
2019-03-27T22:22:20.372Z,27.53
2019-03-27T22:24:51.461Z,24.13
2019-03-27T22:27:22.618Z,26.37
2019-03-27T22:29:53.760Z,26.07
2019-03-27T22:32:24.828Z,28.03
2019-03-27T22:34:56.039Z,28.03
2019-03-27T22:37:27.092Z,27.30
2019-03-27T22:39:58.250Z,26.00
2019-03-27T22:42:29.346Z,23.00
2019-03-27T22:45:00.609Z,25.63
2019-03-27T22:47:31.730Z,22.80
2019-03-27T22:50:02.882Z,26.23
2019-03-27T22:52:34.015Z,23.97
2019-03-27T22:55:05.395Z,22.23
2019-03-27T22:57:36.515Z,28.30
2019-03-27T23:00:08.899Z,20.03
2019-03-27T23:02:41.785Z,30.10
2019-03-27T23:05:13.084Z,34.90
2019-03-27T23:07:44.307Z,30.73
2019-03-27T23:10:15.709Z,26.20
2019-03-27T23:12:46.942Z,30.40
2019-03-27T23:15:18.129Z,30.03
2019-03-27T23:17:49.326Z,29.03
2019-03-27T23:20:20.666Z,35.13
2019-03-27T23:22:51.891Z,27.30
2019-03-27T23:25:24.055Z,29.73
2019-03-27T23:27:55.219Z,34.03
2019-03-27T23:30:26.367Z,27.17
2019-03-27T23:32:57.515Z,29.27
2019-03-27T23:35:28.675Z,27.23
2019-03-27T23:37:59.892Z,31.57
2019-03-27T23:40:31.083Z,36.40
2019-03-27T23:45:51.276Z,27.33
2019-03-27T23:48:22.420Z,32.93
2019-03-27T23:50:53.607Z,29.57
2019-03-27T23:53:24.752Z,30.03
2019-03-27T23:55:55.969Z,30.23
2019-03-27T23:58:27.125Z,35.07
